createdAt,value
2023-02-25T00:01:57.825Z,101934.28
2023-02-25T00:04:32.631Z,101932.75
2023-02-25T00:07:00.975Z,101937.88
2023-02-25T00:09:30.133Z,101934.16
2023-02-25T00:11:58.374Z,101937.38
2023-02-25T00:14:26.771Z,101935.25
2023-02-25T00:16:57.569Z,101937.50
2023-02-25T00:19:27.035Z,101937.28
2023-02-25T00:21:55.189Z,101932.88
2023-02-25T00:24:23.542Z,101930.38
2023-02-25T00:26:51.758Z,101924.53
2023-02-25T00:29:20.315Z,101924.75
2023-02-25T00:31:48.555Z,101916.06
2023-02-25T00:34:18.387Z,101927.38
2023-02-25T00:36:47.790Z,101923.22
2023-02-25T00:39:16.012Z,101926.41
2023-02-25T00:41:44.254Z,101935.13
2023-02-25T00:44:13.289Z,101935.13
2023-02-25T00:46:41.621Z,101936.69
2023-02-25T00:49:09.844Z,101939.31
2023-02-25T00:51:40.033Z,101940.00
2023-02-25T00:54:08.335Z,101938.22
2023-02-25T00:56:37.309Z,101943.13
2023-02-25T00:59:05.457Z,101940.13
2023-02-25T01:01:34.842Z,101944.91
2023-02-25T01:04:03.020Z,101946.44
2023-02-25T01:06:32.791Z,101947.19
2023-02-25T01:09:02.755Z,101941.94
2023-02-25T01:11:33.170Z,101940.25
2023-02-25T01:14:03.013Z,101934.53
2023-02-25T01:16:33.146Z,101937.28
2023-02-25T01:19:04.140Z,101935.00
2023-02-25T01:21:34.468Z,101932.75
2023-02-25T01:24:06.453Z,101935.59
2023-02-25T01:26:38.011Z,101937.88
2023-02-25T01:29:08.923Z,101932.84
2023-02-25T01:31:38.450Z,101939.28
2023-02-25T01:34:09.082Z,101928.31
2023-02-25T01:36:37.204Z,101925.00
2023-02-25T01:39:09.192Z,101918.31
2023-02-25T01:41:38.842Z,101922.13
2023-02-25T01:44:10.794Z,101917.97
2023-02-25T01:46:40.415Z,101927.84
2023-02-25T01:49:14.184Z,101922.72
2023-02-25T01:51:43.548Z,101926.41
2023-02-25T01:54:15.881Z,101932.69
2023-02-25T01:56:49.648Z,101930.31
2023-02-25T01:59:19.807Z,101931.16
2023-02-25T02:01:48.581Z,101932.69
2023-02-25T02:04:19.856Z,101928.06
2023-02-25T02:06:50.632Z,101931.41
2023-02-25T02:09:24.128Z,101927.09
2023-02-25T02:11:52.466Z,101938.44
2023-02-25T02:14:24.115Z,101935.47
2023-02-25T02:17:06.065Z,101941.44
2023-02-25T02:19:48.417Z,101935.34
2023-02-25T02:22:24.290Z,101943.34
2023-02-25T02:25:38.189Z,101948.69
2023-02-25T02:28:41.490Z,101945.34
2023-02-25T02:31:34.391Z,101953.31
2023-02-25T02:34:16.866Z,101955.22
2023-02-25T02:37:00.479Z,101956.19
2023-02-25T02:39:38.792Z,101949.50
2023-02-25T02:42:17.066Z,101947.34
2023-02-25T02:44:53.970Z,101949.97
2023-02-25T02:47:26.720Z,101950.06
2023-02-25T02:49:59.081Z,101950.81
2023-02-25T02:52:30.755Z,101960.69
2023-02-25T02:55:03.900Z,101962.81
2023-02-25T02:57:36.015Z,101973.41
2023-02-25T03:00:17.919Z,101972.91
2023-02-25T03:02:53.784Z,101980.19
2023-02-25T03:05:26.734Z,101983.84
2023-02-25T03:08:03.244Z,101983.00
2023-02-25T03:10:31.961Z,101985.84
2023-02-25T03:13:00.145Z,101984.91
2023-02-25T03:15:30.214Z,101996.31
2023-02-25T03:18:05.291Z,101988.38
2023-02-25T03:20:39.042Z,101986.81
2023-02-25T03:23:12.826Z,101991.22
2023-02-25T03:25:47.929Z,101990.38
2023-02-25T03:28:26.273Z,101988.94
2023-02-25T03:31:01.553Z,101988.09
2023-02-25T03:33:38.300Z,102002.97
2023-02-25T03:36:12.336Z,101989.88
2023-02-25T03:38:45.433Z,101994.78
2023-02-25T03:41:16.415Z,101993.69
2023-02-25T03:43:49.571Z,101989.91
2023-02-25T03:46:20.081Z,101994.94
2023-02-25T03:48:51.473Z,102000.78
2023-02-25T03:51:25.400Z,102006.63
2023-02-25T03:53:53.677Z,102006.53
2023-02-25T03:56:22.555Z,102006.41
2023-02-25T03:58:51.020Z,102008.81
2023-02-25T04:01:24.233Z,102009.53
2023-02-25T04:03:53.964Z,102009.31
2023-02-25T04:06:24.230Z,102020.50
2023-02-25T04:08:53.091Z,102020.28
2023-02-25T04:11:21.393Z,102010.50
2023-02-25T04:13:49.461Z,102026.22
2023-02-25T04:16:17.669Z,102018.63
2023-02-25T04:18:45.897Z,102022.59
2023-02-25T04:21:27.554Z,102016.50
2023-02-25T04:23:55.464Z,102026.28
2023-02-25T04:26:23.912Z,102026.16
2023-02-25T04:28:52.976Z,102026.03
2023-02-25T04:31:21.500Z,102029.50
2023-02-25T04:33:50.599Z,102025.19
2023-02-25T04:36:32.274Z,102012.22
2023-02-25T04:39:01.700Z,102012.34
2023-02-25T04:41:31.515Z,102013.06
2023-02-25T04:44:00.163Z,102015.53
2023-02-25T04:46:28.451Z,102018.91
2023-02-25T04:48:57.210Z,102018.78
2023-02-25T04:51:25.401Z,102024.63
2023-02-25T04:53:55.076Z,102026.53
2023-02-25T04:56:23.867Z,102035.13
2023-02-25T04:58:52.390Z,102041.34
2023-02-25T05:01:20.773Z,102043.81
2023-02-25T05:03:49.153Z,102050.66
2023-02-25T05:06:17.382Z,102052.41
2023-02-25T05:08:45.848Z,102056.09
2023-02-25T05:11:18.510Z,102058.00
2023-02-25T05:13:46.978Z,102050.38
2023-02-25T05:16:17.813Z,102047.50
2023-02-25T05:18:48.144Z,102053.69
2023-02-25T05:21:19.341Z,102062.41
2023-02-25T05:23:48.933Z,102064.94
2023-02-25T05:26:22.510Z,102057.06
2023-02-25T05:28:51.734Z,102063.22
2023-02-25T05:31:20.243Z,102070.19
2023-02-25T05:33:48.687Z,102062.31
2023-02-25T05:36:17.849Z,102071.00
2023-02-25T05:38:46.972Z,102064.94
2023-02-25T05:41:16.323Z,102065.50
2023-02-25T05:43:46.126Z,102062.06
2023-02-25T05:46:15.111Z,102063.22
2023-02-25T05:48:46.818Z,102071.00
2023-02-25T05:51:17.176Z,102063.97
2023-02-25T05:53:46.039Z,102067.56
2023-02-25T05:56:16.266Z,102064.31
2023-02-25T05:58:46.818Z,102071.09
2023-02-25T06:01:17.750Z,102063.47
2023-02-25T06:03:49.280Z,102077.56
2023-02-25T06:06:23.497Z,102073.97
2023-02-25T06:08:53.202Z,102074.69
2023-02-25T06:11:24.235Z,102077.44
2023-02-25T06:13:55.057Z,102084.22
2023-02-25T06:16:26.095Z,102081.72
2023-02-25T06:18:54.627Z,102082.44
2023-02-25T06:21:23.034Z,102078.97
2023-02-25T06:23:51.835Z,102080.88
2023-02-25T06:26:20.810Z,102085.28
2023-02-25T06:28:49.338Z,102091.38
2023-02-25T06:31:21.008Z,102085.16
2023-02-25T06:33:51.428Z,102087.09
2023-02-25T06:36:24.026Z,102097.78
2023-02-25T06:38:52.613Z,102096.13
2023-02-25T06:41:23.400Z,102091.00
2023-02-25T06:43:52.523Z,102094.66
2023-02-25T06:46:24.761Z,102092.16
2023-02-25T06:48:53.598Z,102107.06
2023-02-25T06:51:21.764Z,102109.78
2023-02-25T06:53:51.173Z,102114.19
2023-02-25T06:56:20.394Z,102124.06
2023-02-25T06:58:49.093Z,102130.38
2023-02-25T07:01:18.019Z,102127.53
2023-02-25T07:03:47.668Z,102133.63
2023-02-25T07:06:16.356Z,102134.44
2023-02-25T07:08:45.037Z,102136.31
2023-02-25T07:11:15.594Z,102134.78
2023-02-25T07:13:44.560Z,102146.31
2023-02-25T07:16:13.651Z,102143.81
2023-02-25T07:18:42.169Z,102142.75
2023-02-25T07:21:13.844Z,102145.59
2023-02-25T07:23:42.699Z,102148.09
2023-02-25T07:26:13.535Z,102150.00
2023-02-25T07:28:41.999Z,102157.47
2023-02-25T07:31:15.642Z,102163.53
2023-02-25T07:33:44.806Z,102166.78
2023-02-25T07:36:15.556Z,102177.06
2023-02-25T07:38:44.184Z,102172.44
2023-02-25T07:41:16.192Z,102178.41
2023-02-25T07:43:44.881Z,102172.31
2023-02-25T07:46:13.898Z,102178.84
2023-02-25T07:48:42.840Z,102186.78
2023-02-25T07:51:12.909Z,102189.41
2023-02-25T07:53:43.194Z,102184.19
2023-02-25T07:56:11.824Z,102189.53
2023-02-25T07:58:40.574Z,102194.78
2023-02-25T08:01:10.416Z,102196.56
2023-02-25T08:03:38.811Z,102218.25
2023-02-25T08:06:09.052Z,102210.38
2023-02-25T08:08:37.997Z,102217.34
2023-02-25T08:11:08.983Z,102215.63
2023-02-25T08:13:37.557Z,102215.53
2023-02-25T08:16:06.908Z,102226.03
2023-02-25T08:18:35.047Z,102223.16
2023-02-25T08:21:04.533Z,102210.81
2023-02-25T08:23:33.050Z,102222.25
2023-02-25T08:26:02.652Z,102226.41
2023-02-25T08:28:35.410Z,102236.69
2023-02-25T08:31:07.818Z,102241.94
2023-02-25T08:33:36.228Z,102242.88
2023-02-25T08:36:09.902Z,102249.56
2023-02-25T08:38:39.011Z,102252.09
2023-02-25T08:41:08.771Z,102256.28
2023-02-25T08:43:38.782Z,102252.81
2023-02-25T08:46:07.592Z,102257.97
2023-02-25T08:48:36.341Z,102262.97
2023-02-25T08:51:08.590Z,102248.25
2023-02-25T08:53:39.005Z,102257.59
2023-02-25T08:56:08.085Z,102258.00
2023-02-25T08:58:36.755Z,102245.97
2023-02-25T09:01:13.141Z,102244.22
2023-02-25T09:03:53.686Z,102252.78
2023-02-25T09:06:23.747Z,102259.34
2023-02-25T09:08:54.310Z,102257.75
2023-02-25T09:11:23.457Z,102251.38
2023-02-25T09:13:51.733Z,102263.78
2023-02-25T09:16:21.392Z,102253.81
2023-02-25T09:18:51.521Z,102260.16
2023-02-25T09:21:21.066Z,102256.78
2023-02-25T09:23:52.234Z,102261.09
2023-02-25T09:26:21.430Z,102270.84
2023-02-25T09:28:49.745Z,102264.66
2023-02-25T09:31:19.056Z,102267.69
2023-02-25T09:33:48.805Z,102261.16
2023-02-25T09:36:19.074Z,102268.81
2023-02-25T09:38:48.983Z,102260.00
2023-02-25T09:41:26.753Z,102261.63
2023-02-25T09:44:03.734Z,102265.13
2023-02-25T09:46:33.897Z,102273.28
2023-02-25T09:49:12.101Z,102284.63
2023-02-25T09:51:45.933Z,102273.66
2023-02-25T09:54:22.398Z,102276.69
2023-02-25T09:56:51.555Z,102277.56
2023-02-25T09:59:22.309Z,102273.53
2023-02-25T10:01:56.988Z,102281.97
2023-02-25T10:04:33.421Z,102288.03
2023-02-25T10:07:09.941Z,102295.13
2023-02-25T10:09:48.312Z,102298.53
2023-02-25T10:12:30.904Z,102303.69
2023-02-25T10:15:26.099Z,102308.38
2023-02-25T10:18:11.474Z,102304.41
2023-02-25T10:20:50.581Z,102302.63
2023-02-25T10:23:31.913Z,102318.56
2023-02-25T10:26:07.392Z,102326.53
2023-02-25T10:28:36.982Z,102324.03
2023-02-25T10:31:08.912Z,102323.72
2023-02-25T10:33:40.452Z,102316.88
2023-02-25T10:36:11.429Z,102314.31
2023-02-25T10:38:43.634Z,102314.31
2023-02-25T10:41:12.889Z,102310.47
2023-02-25T10:43:41.319Z,102313.06
2023-02-25T10:46:15.453Z,102317.88
2023-02-25T10:48:48.797Z,102321.63
2023-02-25T10:51:18.548Z,102320.22
2023-02-25T10:54:05.145Z,102316.09
2023-02-25T10:56:42.590Z,102325.06
2023-02-25T10:59:31.109Z,102318.19
2023-02-25T11:02:01.500Z,102329.06
2023-02-25T11:04:33.460Z,102349.75
2023-02-25T11:07:03.428Z,102353.03
2023-02-25T11:09:38.672Z,102335.81
2023-02-25T11:12:17.881Z,102340.16
2023-02-25T11:14:46.386Z,102330.66
2023-02-25T11:17:20.441Z,102321.03
2023-02-25T11:19:52.615Z,102323.16
2023-02-25T11:22:26.557Z,102327.16
2023-02-25T11:25:00.760Z,102325.47
2023-02-25T11:27:37.883Z,102323.69
2023-02-25T11:30:16.962Z,102336.97
2023-02-25T11:32:47.215Z,102325.56
2023-02-25T11:35:20.178Z,102320.81
2023-02-25T11:37:50.073Z,102319.19
2023-02-25T11:40:28.101Z,102324.75
2023-02-25T11:43:18.057Z,102325.13
2023-02-25T11:45:56.833Z,102328.56
2023-02-25T11:48:30.004Z,102341.47
2023-02-25T11:51:10.547Z,102338.38
2023-02-25T11:54:09.428Z,102338.22
2023-02-25T11:56:39.803Z,102345.75
2023-02-25T11:59:22.205Z,102349.50
2023-02-25T12:02:21.914Z,102345.50
2023-02-25T12:05:09.994Z,102349.13
2023-02-25T12:08:10.055Z,102344.22
2023-02-25T12:11:10.266Z,102359.97
2023-02-25T12:14:04.804Z,102351.88
2023-02-25T12:17:10.243Z,102351.50
2023-02-25T12:20:13.036Z,102354.47
2023-02-25T12:23:18.968Z,102341.66
2023-02-25T12:25:54.688Z,102343.19
2023-02-25T12:28:49.805Z,102331.50
2023-02-25T12:31:59.796Z,102338.09
2023-02-25T12:35:01.518Z,102341.38
2023-02-25T12:37:50.026Z,102352.84
2023-02-25T12:41:01.652Z,102349.81
2023-02-25T12:43:41.346Z,102348.78
2023-02-25T12:46:40.127Z,102343.19
2023-02-25T12:49:38.620Z,102342.25
2023-02-25T12:52:28.361Z,102344.47
2023-02-25T12:55:28.472Z,102336.31
2023-02-25T12:58:26.883Z,102338.72
2023-02-25T13:01:23.824Z,102328.41
2023-02-25T13:04:14.564Z,102329.03
2023-02-25T13:07:19.022Z,102327.97
2023-02-25T13:10:13.245Z,102332.63
2023-02-25T13:12:59.087Z,102329.88
2023-02-25T13:15:37.915Z,102331.38
2023-02-25T13:18:24.029Z,102342.38
2023-02-25T13:21:09.382Z,102330.63
2023-02-25T13:24:02.090Z,102335.13
2023-02-25T13:27:14.011Z,102329.38
2023-02-25T13:29:49.770Z,102331.34
2023-02-25T13:32:33.860Z,102331.59
2023-02-25T13:35:17.218Z,102339.56
2023-02-25T13:37:57.432Z,102331.66
2023-02-25T13:40:48.882Z,102334.31
2023-02-25T13:43:45.056Z,102323.09
2023-02-25T13:46:37.326Z,102320.19
2023-02-25T13:49:34.461Z,102329.47
2023-02-25T13:52:21.564Z,102328.22
2023-02-25T13:55:17.509Z,102318.28
2023-02-25T13:58:00.796Z,102316.72
2023-02-25T14:00:43.574Z,102317.72
2023-02-25T14:03:34.641Z,102326.78
2023-02-25T14:06:16.336Z,102318.59
2023-02-25T14:09:11.403Z,102320.06
2023-02-25T14:11:57.720Z,102313.81
2023-02-25T14:14:54.817Z,102309.81
2023-02-25T14:17:40.341Z,102317.56
2023-02-25T14:20:32.523Z,102320.19
2023-02-25T14:23:09.215Z,102317.56
2023-02-25T14:25:48.545Z,102328.19
2023-02-25T14:28:27.294Z,102321.69
2023-02-25T14:31:07.643Z,102321.34
2023-02-25T14:33:52.847Z,102323.97
2023-02-25T14:36:36.264Z,102322.44
2023-02-25T14:39:21.839Z,102321.94
2023-02-25T14:42:03.896Z,102319.63
2023-02-25T14:44:41.301Z,102320.81
2023-02-25T14:47:15.735Z,102323.19
2023-02-25T14:49:54.201Z,102327.34
2023-02-25T14:52:36.747Z,102319.69
2023-02-25T14:55:40.301Z,102318.41
2023-02-25T14:58:39.179Z,102318.53
2023-02-25T15:01:38.939Z,102311.47
2023-02-25T15:04:26.564Z,102314.31
2023-02-25T15:07:18.469Z,102326.41
2023-02-25T15:10:27.314Z,102328.91
2023-02-25T15:13:46.508Z,102325.94
2023-02-25T15:16:50.045Z,102334.97
2023-02-25T15:19:45.714Z,102322.31
2023-02-25T15:22:23.886Z,102322.31
2023-02-25T15:24:53.411Z,102330.19
2023-02-25T15:27:48.385Z,102336.25
2023-02-25T15:30:19.372Z,102324.09
2023-02-25T15:32:55.112Z,102345.09
2023-02-25T15:35:25.499Z,102341.72
2023-02-25T15:38:07.303Z,102328.50
2023-02-25T15:40:47.985Z,102347.47
2023-02-25T15:43:44.917Z,102335.44
2023-02-25T15:46:44.518Z,102328.94
2023-02-25T15:49:33.688Z,102334.63
2023-02-25T15:52:04.764Z,102342.13
2023-02-25T15:54:51.457Z,102333.72
2023-02-25T15:57:41.959Z,102339.91
2023-02-25T16:00:52.336Z,102336.97
2023-02-25T16:03:42.500Z,102337.47
2023-02-25T16:06:21.291Z,102340.94
2023-02-25T16:08:54.793Z,102334.25
2023-02-25T16:11:29.683Z,102348.19
2023-02-25T16:14:00.422Z,102338.97
2023-02-25T16:16:30.424Z,102352.31
2023-02-25T16:19:01.566Z,102353.66
2023-02-25T16:21:41.233Z,102352.94
2023-02-25T16:24:11.520Z,102354.22
2023-02-25T16:26:46.966Z,102364.91
2023-02-25T16:29:26.950Z,102365.13
2023-02-25T16:31:59.890Z,102363.69
2023-02-25T16:34:35.975Z,102367.47
2023-02-25T16:37:13.215Z,102373.66
2023-02-25T16:39:41.812Z,102377.19
2023-02-25T16:42:14.005Z,102377.44
2023-02-25T16:44:45.665Z,102386.13
2023-02-25T16:47:25.201Z,102375.84
2023-02-25T16:49:55.568Z,102380.13
2023-02-25T16:52:31.304Z,102390.53
2023-02-25T16:55:02.084Z,102398.28
2023-02-25T16:57:30.690Z,102394.00
2023-02-25T17:00:16.634Z,102388.53
2023-02-25T17:02:48.518Z,102403.00
2023-02-25T17:05:26.061Z,102397.53
2023-02-25T17:08:01.248Z,102399.13
2023-02-25T17:10:32.065Z,102401.50
2023-02-25T17:13:02.933Z,102396.50
2023-02-25T17:15:34.179Z,102402.69
2023-02-25T17:18:08.746Z,102398.28
2023-02-25T17:20:38.049Z,102403.63
2023-02-25T17:23:13.492Z,102400.41
2023-02-25T17:25:44.396Z,102402.25
2023-02-25T17:28:21.904Z,102405.84
2023-02-25T17:30:50.611Z,102411.19
2023-02-25T17:33:25.154Z,102408.56
2023-02-25T17:35:56.876Z,102411.91
2023-02-25T17:38:29.118Z,102401.63
2023-02-25T17:40:59.425Z,102403.53
2023-02-25T17:43:35.343Z,102402.69
2023-02-25T17:46:15.869Z,102411.59
2023-02-25T17:48:53.218Z,102410.56
2023-02-25T17:51:32.315Z,102410.69
2023-02-25T17:54:07.651Z,102419.25
2023-02-25T17:56:37.414Z,102419.97
2023-02-25T17:59:07.820Z,102420.72
2023-02-25T18:01:54.097Z,102423.56
2023-02-25T18:04:26.946Z,102425.22
2023-02-25T18:06:56.544Z,102429.56
2023-02-25T18:09:32.932Z,102443.06
2023-02-25T18:12:03.426Z,102439.50
2023-02-25T18:14:36.313Z,102446.44
2023-02-25T18:17:14.233Z,102444.97
2023-02-25T18:19:46.118Z,102438.97
2023-02-25T18:22:32.374Z,102456.16
2023-02-25T18:25:04.292Z,102447.56
2023-02-25T18:27:34.174Z,102449.38
2023-02-25T18:30:18.332Z,102457.31
2023-02-25T18:32:47.838Z,102460.81
2023-02-25T18:35:16.680Z,102469.56
2023-02-25T18:37:51.233Z,102468.75
2023-02-25T18:40:29.648Z,102472.97
2023-02-25T18:42:58.313Z,102462.25
2023-02-25T18:45:28.000Z,102459.72
2023-02-25T18:47:57.781Z,102469.38
2023-02-25T18:50:27.377Z,102472.72
2023-02-25T18:52:55.937Z,102479.69
2023-02-25T18:55:28.806Z,102474.31
2023-02-25T18:57:57.748Z,102485.53
2023-02-25T19:00:28.662Z,102483.78
2023-02-25T19:02:59.612Z,102476.94
2023-02-25T19:05:29.773Z,102488.56
2023-02-25T19:07:58.150Z,102493.81
2023-02-25T19:10:29.757Z,102498.09
2023-02-25T19:13:02.202Z,102502.75
2023-02-25T19:15:30.656Z,102500.00
2023-02-25T19:17:58.843Z,102505.38
2023-02-25T19:20:27.517Z,102505.56
2023-02-25T19:22:56.574Z,102511.53
2023-02-25T19:25:28.796Z,102523.78
2023-02-25T19:27:58.372Z,102511.63
2023-02-25T19:30:29.265Z,102517.59
2023-02-25T19:33:02.864Z,102521.94
2023-02-25T19:35:37.431Z,102526.22
2023-02-25T19:38:08.855Z,102525.28
2023-02-25T19:40:38.610Z,102519.31
2023-02-25T19:43:07.378Z,102521.94
2023-02-25T19:45:35.565Z,102520.97
2023-02-25T19:48:04.444Z,102522.66
2023-02-25T19:50:34.920Z,102525.16
2023-02-25T19:53:05.633Z,102520.78
2023-02-25T19:55:34.714Z,102518.16
2023-02-25T19:58:04.712Z,102527.25
2023-02-25T20:00:33.675Z,102526.88
2023-02-25T20:03:02.089Z,102519.09
2023-02-25T20:05:30.433Z,102525.09
2023-02-25T20:07:58.642Z,102522.34
2023-02-25T20:10:26.837Z,102524.13
2023-02-25T20:12:55.196Z,102526.75
2023-02-25T20:15:25.570Z,102526.13
2023-02-25T20:17:55.204Z,102529.50
2023-02-25T20:20:24.036Z,102533.91
2023-02-25T20:22:52.230Z,102536.22
2023-02-25T20:25:20.755Z,102532.00
2023-02-25T20:27:49.091Z,102534.63
2023-02-25T20:30:23.137Z,102544.91
2023-02-25T20:32:53.162Z,102544.16
2023-02-25T20:35:22.898Z,102545.94
2023-02-25T20:38:06.205Z,102552.25
2023-02-25T20:40:34.511Z,102556.44
2023-02-25T20:43:03.474Z,102567.75
2023-02-25T20:45:32.541Z,102568.50
2023-02-25T20:48:02.831Z,102566.81
2023-02-25T20:50:31.556Z,102568.41
2023-02-25T20:53:00.160Z,102571.66
2023-02-25T20:55:28.420Z,102575.25
2023-02-25T20:57:56.752Z,102564.94
2023-02-25T21:00:25.026Z,102588.25
2023-02-25T21:02:53.605Z,102574.06
2023-02-25T21:05:23.246Z,102580.06
2023-02-25T21:07:51.973Z,102577.44
2023-02-25T21:10:21.238Z,102579.22
2023-02-25T21:12:49.468Z,102583.72
2023-02-25T21:15:17.973Z,102589.19
2023-02-25T21:17:46.325Z,102590.22
2023-02-25T21:20:14.414Z,102591.88
2023-02-25T21:22:43.923Z,102599.97
2023-02-25T21:25:12.343Z,102601.53
2023-02-25T21:27:42.939Z,102609.00
2023-02-25T21:30:15.293Z,102613.41
2023-02-25T21:32:43.468Z,102608.69
2023-02-25T21:35:11.845Z,102613.22
2023-02-25T21:37:41.091Z,102610.59
2023-02-25T21:40:12.469Z,102611.00
2023-02-25T21:42:40.598Z,102604.94
2023-02-25T21:45:11.167Z,102612.91
2023-02-25T21:47:39.342Z,102617.31
2023-02-25T21:50:08.462Z,102617.94
2023-02-25T21:52:36.589Z,102620.34
2023-02-25T21:55:04.997Z,102613.94
2023-02-25T21:57:34.531Z,102610.41
2023-02-25T22:00:02.749Z,102614.50
2023-02-25T22:02:32.916Z,102615.44
2023-02-25T22:05:01.162Z,102617.22
2023-02-25T22:07:29.603Z,102630.31
2023-02-25T22:09:58.189Z,102618.88
2023-02-25T22:12:26.415Z,102614.69
2023-02-25T22:14:55.896Z,102617.50
2023-02-25T22:17:24.507Z,102622.75
2023-02-25T22:19:52.737Z,102628.00
2023-02-25T22:22:20.952Z,102629.69
2023-02-25T22:24:49.258Z,102628.94
2023-02-25T22:27:17.434Z,102627.28
2023-02-25T22:29:45.710Z,102631.56
2023-02-25T22:32:15.583Z,102635.78
2023-02-25T22:34:43.959Z,102640.16
2023-02-25T22:37:12.052Z,102633.91
2023-02-25T22:39:40.255Z,102633.69
2023-02-25T22:42:08.473Z,102643.34
2023-02-25T22:44:36.606Z,102645.22
2023-02-25T22:47:07.467Z,102640.72
2023-02-25T22:49:39.976Z,102649.44
2023-02-25T22:52:08.131Z,102655.53
2023-02-25T22:54:36.577Z,102648.59
2023-02-25T22:57:04.838Z,102646.72
2023-02-25T22:59:33.059Z,102646.72
2023-02-25T23:02:02.808Z,102636.31
2023-02-25T23:04:31.005Z,102643.34
2023-02-25T23:07:01.470Z,102647.00
2023-02-25T23:09:29.893Z,102647.84
2023-02-25T23:12:00.037Z,102647.13
2023-02-25T23:14:28.917Z,102655.81
2023-02-25T23:16:57.285Z,102655.00
2023-02-25T23:19:25.485Z,102660.22
2023-02-25T23:21:53.657Z,102658.16
2023-02-25T23:24:23.461Z,102661.72
2023-02-25T23:26:53.873Z,102657.19
2023-02-25T23:29:22.356Z,102662.25
2023-02-25T23:31:51.109Z,102657.09
2023-02-25T23:34:22.971Z,102666.84
2023-02-25T23:36:51.574Z,102662.94
2023-02-25T23:39:19.987Z,102664.94
2023-02-25T23:41:49.798Z,102672.03
2023-02-25T23:44:18.125Z,102678.97
2023-02-25T23:46:46.436Z,102685.16
2023-02-25T23:49:17.158Z,102687.88
2023-02-25T23:51:46.565Z,102689.47
2023-02-25T23:54:16.961Z,102694.63
2023-02-25T23:56:45.160Z,102705.00
2023-02-25T23:59:15.188Z,102697.97
